sensor_id;sensor_type;location;lat;lon;timestamp;P1;durP1;ratioP1;P2;durP2;ratioP2
22963;SDS011;11648;49.306;6.934;2023-12-20T00:02:15;6.13;;;4.00;;
22963;SDS011;11648;49.306;6.934;2023-12-20T00:04:42;6.40;;;4.50;;
22963;SDS011;11648;49.306;6.934;2023-12-20T00:07:09;5.60;;;3.87;;
22963;SDS011;11648;49.306;6.934;2023-12-20T00:09:36;6.00;;;4.17;;
22963;SDS011;11648;49.306;6.934;2023-12-20T00:12:03;5.63;;;3.97;;
22963;SDS011;11648;49.306;6.934;2023-12-20T00:14:30;5.67;;;3.40;;
22963;SDS011;11648;49.306;6.934;2023-12-20T00:16:56;5.33;;;4.10;;
22963;SDS011;11648;49.306;6.934;2023-12-20T00:19:23;6.17;;;4.20;;
22963;SDS011;11648;49.306;6.934;2023-12-20T00:21:50;5.07;;;3.50;;
22963;SDS011;11648;49.306;6.934;2023-12-20T00:24:17;5.47;;;3.77;;
22963;SDS011;11648;49.306;6.934;2023-12-20T00:26:44;5.47;;;3.73;;
22963;SDS011;11648;49.306;6.934;2023-12-20T00:29:11;4.50;;;3.37;;
22963;SDS011;11648;49.306;6.934;2023-12-20T00:31:38;5.53;;;3.60;;
22963;SDS011;11648;49.306;6.934;2023-12-20T00:34:04;5.13;;;3.10;;
22963;SDS011;11648;49.306;6.934;2023-12-20T00:36:31;4.77;;;3.40;;
22963;SDS011;11648;49.306;6.934;2023-12-20T00:38:58;5.37;;;3.50;;
22963;SDS011;11648;49.306;6.934;2023-12-20T00:41:25;5.23;;;3.37;;
22963;SDS011;11648;49.306;6.934;2023-12-20T00:43:52;5.13;;;3.40;;
22963;SDS011;11648;49.306;6.934;2023-12-20T00:46:19;6.00;;;3.17;;
22963;SDS011;11648;49.306;6.934;2023-12-20T00:48:46;4.73;;;3.10;;
22963;SDS011;11648;49.306;6.934;2023-12-20T00:51:13;5.00;;;3.27;;
22963;SDS011;11648;49.306;6.934;2023-12-20T00:53:39;5.00;;;3.10;;
22963;SDS011;11648;49.306;6.934;2023-12-20T00:56:06;4.53;;;3.03;;
22963;SDS011;11648;49.306;6.934;2023-12-20T00:58:33;4.53;;;3.30;;
22963;SDS011;11648;49.306;6.934;2023-12-20T01:01:00;5.57;;;3.37;;
22963;SDS011;11648;49.306;6.934;2023-12-20T01:03:27;5.23;;;3.43;;
22963;SDS011;11648;49.306;6.934;2023-12-20T01:05:54;5.60;;;3.30;;
22963;SDS011;11648;49.306;6.934;2023-12-20T01:08:21;5.03;;;3.30;;
22963;SDS011;11648;49.306;6.934;2023-12-20T01:10:47;4.40;;;2.97;;
22963;SDS011;11648;49.306;6.934;2023-12-20T01:13:14;5.53;;;3.10;;
22963;SDS011;11648;49.306;6.934;2023-12-20T01:15:41;3.97;;;2.50;;
22963;SDS011;11648;49.306;6.934;2023-12-20T01:18:08;3.73;;;2.53;;
22963;SDS011;11648;49.306;6.934;2023-12-20T01:20:35;4.60;;;3.00;;
22963;SDS011;11648;49.306;6.934;2023-12-20T01:23:02;4.30;;;2.73;;
22963;SDS011;11648;49.306;6.934;2023-12-20T01:25:29;3.50;;;2.47;;
22963;SDS011;11648;49.306;6.934;2023-12-20T01:27:56;4.17;;;2.33;;
22963;SDS011;11648;49.306;6.934;2023-12-20T01:30:23;3.83;;;2.67;;
22963;SDS011;11648;49.306;6.934;2023-12-20T01:32:51;3.70;;;2.50;;
22963;SDS011;11648;49.306;6.934;2023-12-20T01:35:18;3.57;;;2.47;;
22963;SDS011;11648;49.306;6.934;2023-12-20T01:37:45;4.07;;;2.73;;
22963;SDS011;11648;49.306;6.934;2023-12-20T01:40:12;4.33;;;2.73;;
22963;SDS011;11648;49.306;6.934;2023-12-20T01:42:39;3.80;;;2.40;;
22963;SDS011;11648;49.306;6.934;2023-12-20T01:45:06;3.47;;;2.30;;
22963;SDS011;11648;49.306;6.934;2023-12-20T01:47:33;3.80;;;2.40;;
22963;SDS011;11648;49.306;6.934;2023-12-20T01:50:00;3.60;;;2.50;;
22963;SDS011;11648;49.306;6.934;2023-12-20T01:52:30;3.13;;;2.23;;
22963;SDS011;11648;49.306;6.934;2023-12-20T01:54:58;4.20;;;2.40;;
22963;SDS011;11648;49.306;6.934;2023-12-20T01:57:29;4.90;;;2.33;;
22963;SDS011;11648;49.306;6.934;2023-12-20T01:59:57;4.17;;;2.43;;
22963;SDS011;11648;49.306;6.934;2023-12-20T02:02:24;3.47;;;2.27;;
22963;SDS011;11648;49.306;6.934;2023-12-20T02:04:54;3.50;;;2.43;;
22963;SDS011;11648;49.306;6.934;2023-12-20T02:07:22;3.80;;;2.30;;
22963;SDS011;11648;49.306;6.934;2023-12-20T02:09:49;4.23;;;2.43;;
22963;SDS011;11648;49.306;6.934;2023-12-20T02:12:16;3.77;;;2.90;;
22963;SDS011;11648;49.306;6.934;2023-12-20T02:14:43;3.50;;;2.40;;
22963;SDS011;11648;49.306;6.934;2023-12-20T02:17:10;3.40;;;2.50;;
22963;SDS011;11648;49.306;6.934;2023-12-20T02:19:37;3.80;;;2.70;;
22963;SDS011;11648;49.306;6.934;2023-12-20T02:22:04;4.33;;;2.73;;
22963;SDS011;11648;49.306;6.934;2023-12-20T02:24:33;4.77;;;3.00;;
22963;SDS011;11648;49.306;6.934;2023-12-20T02:27:00;3.83;;;2.87;;
22963;SDS011;11648;49.306;6.934;2023-12-20T02:29:27;4.03;;;2.60;;
22963;SDS011;11648;49.306;6.934;2023-12-20T02:31:53;3.70;;;2.60;;
22963;SDS011;11648;49.306;6.934;2023-12-20T02:34:20;3.70;;;2.60;;
22963;SDS011;11648;49.306;6.934;2023-12-20T02:36:47;4.57;;;2.80;;
22963;SDS011;11648;49.306;6.934;2023-12-20T02:39:14;4.30;;;2.53;;
22963;SDS011;11648;49.306;6.934;2023-12-20T02:41:41;6.67;;;3.03;;
22963;SDS011;11648;49.306;6.934;2023-12-20T02:44:08;3.77;;;2.70;;
22963;SDS011;11648;49.306;6.934;2023-12-20T02:46:34;3.63;;;2.50;;
22963;SDS011;11648;49.306;6.934;2023-12-20T02:49:01;4.40;;;2.67;;
22963;SDS011;11648;49.306;6.934;2023-12-20T02:51:28;3.47;;;2.60;;
22963;SDS011;11648;49.306;6.934;2023-12-20T02:53:55;4.17;;;3.10;;
22963;SDS011;11648;49.306;6.934;2023-12-20T02:56:22;3.63;;;2.63;;
22963;SDS011;11648;49.306;6.934;2023-12-20T02:58:48;3.97;;;2.73;;
22963;SDS011;11648;49.306;6.934;2023-12-20T03:01:15;4.20;;;2.80;;
22963;SDS011;11648;49.306;6.934;2023-12-20T03:03:42;3.77;;;2.63;;
22963;SDS011;11648;49.306;6.934;2023-12-20T03:06:09;3.93;;;2.73;;
22963;SDS011;11648;49.306;6.934;2023-12-20T03:08:36;5.10;;;2.77;;
22963;SDS011;11648;49.306;6.934;2023-12-20T03:11:03;4.50;;;3.27;;
22963;SDS011;11648;49.306;6.934;2023-12-20T03:13:30;5.37;;;2.90;;
22963;SDS011;11648;49.306;6.934;2023-12-20T03:15:57;3.80;;;3.00;;
22963;SDS011;11648;49.306;6.934;2023-12-20T03:18:23;4.20;;;3.10;;
22963;SDS011;11648;49.306;6.934;2023-12-20T03:20:50;4.23;;;3.10;;
22963;SDS011;11648;49.306;6.934;2023-12-20T03:23:18;3.47;;;2.63;;
22963;SDS011;11648;49.306;6.934;2023-12-20T03:25:45;4.20;;;3.00;;
22963;SDS011;11648;49.306;6.934;2023-12-20T03:28:14;4.17;;;2.63;;
22963;SDS011;11648;49.306;6.934;2023-12-20T03:30:41;4.10;;;3.07;;
22963;SDS011;11648;49.306;6.934;2023-12-20T03:33:08;4.27;;;3.20;;
22963;SDS011;11648;49.306;6.934;2023-12-20T03:35:35;4.57;;;3.00;;
22963;SDS011;11648;49.306;6.934;2023-12-20T03:38:02;4.07;;;3.30;;
22963;SDS011;11648;49.306;6.934;2023-12-20T03:40:28;4.23;;;3.07;;
22963;SDS011;11648;49.306;6.934;2023-12-20T03:42:55;4.10;;;3.00;;
22963;SDS011;11648;49.306;6.934;2023-12-20T03:45:23;4.10;;;3.30;;
22963;SDS011;11648;49.306;6.934;2023-12-20T03:47:49;3.93;;;2.87;;
22963;SDS011;11648;49.306;6.934;2023-12-20T03:50:24;3.70;;;2.80;;
22963;SDS011;11648;49.306;6.934;2023-12-20T03:52:52;4.33;;;2.97;;
22963;SDS011;11648;49.306;6.934;2023-12-20T03:55:19;3.80;;;2.80;;
22963;SDS011;11648;49.306;6.934;2023-12-20T03:57:46;6.17;;;3.00;;
22963;SDS011;11648;49.306;6.934;2023-12-20T04:00:13;3.80;;;2.80;;
22963;SDS011;11648;49.306;6.934;2023-12-20T04:02:41;5.57;;;2.87;;
22963;SDS011;11648;49.306;6.934;2023-12-20T04:05:09;5.00;;;2.97;;
22963;SDS011;11648;49.306;6.934;2023-12-20T04:07:36;4.47;;;2.60;;
22963;SDS011;11648;49.306;6.934;2023-12-20T04:10:03;3.77;;;2.70;;
22963;SDS011;11648;49.306;6.934;2023-12-20T04:12:31;4.87;;;2.93;;
22963;SDS011;11648;49.306;6.934;2023-12-20T04:14:58;4.77;;;3.00;;
22963;SDS011;11648;49.306;6.934;2023-12-20T04:17:25;8.07;;;3.10;;
22963;SDS011;11648;49.306;6.934;2023-12-20T04:19:52;5.90;;;3.30;;
22963;SDS011;11648;49.306;6.934;2023-12-20T04:22:19;5.60;;;2.90;;
22963;SDS011;11648;49.306;6.934;2023-12-20T04:24:46;7.07;;;3.27;;
22963;SDS011;11648;49.306;6.934;2023-12-20T04:27:13;6.17;;;2.87;;
22963;SDS011;11648;49.306;6.934;2023-12-20T04:29:40;4.90;;;2.70;;
22963;SDS011;11648;49.306;6.934;2023-12-20T04:32:06;8.50;;;3.10;;
22963;SDS011;11648;49.306;6.934;2023-12-20T04:34:33;6.43;;;3.07;;
22963;SDS011;11648;49.306;6.934;2023-12-20T04:37:00;6.40;;;2.90;;
22963;SDS011;11648;49.306;6.934;2023-12-20T04:39:28;10.03;;;2.87;;
22963;SDS011;11648;49.306;6.934;2023-12-20T04:41:55;8.43;;;2.60;;
22963;SDS011;11648;49.306;6.934;2023-12-20T04:44:22;4.67;;;2.20;;
22963;SDS011;11648;49.306;6.934;2023-12-20T04:46:50;4.10;;;1.60;;
22963;SDS011;11648;49.306;6.934;2023-12-20T04:49:16;6.80;;;1.90;;
22963;SDS011;11648;49.306;6.934;2023-12-20T04:51:43;5.33;;;1.60;;
22963;SDS011;11648;49.306;6.934;2023-12-20T04:54:10;3.73;;;1.30;;
22963;SDS011;11648;49.306;6.934;2023-12-20T04:56:37;4.30;;;1.50;;
22963;SDS011;11648;49.306;6.934;2023-12-20T04:59:04;3.53;;;1.20;;
22963;SDS011;11648;49.306;6.934;2023-12-20T05:01:32;3.17;;;1.43;;
22963;SDS011;11648;49.306;6.934;2023-12-20T05:03:59;3.67;;;1.00;;
22963;SDS011;11648;49.306;6.934;2023-12-20T05:06:26;3.30;;;1.50;;
22963;SDS011;11648;49.306;6.934;2023-12-20T05:08:52;3.70;;;1.20;;
22963;SDS011;11648;49.306;6.934;2023-12-20T05:11:19;5.57;;;1.50;;
22963;SDS011;11648;49.306;6.934;2023-12-20T05:13:46;8.37;;;2.10;;
22963;SDS011;11648;49.306;6.934;2023-12-20T05:16:16;9.10;;;2.77;;
22963;SDS011;11648;49.306;6.934;2023-12-20T05:18:45;6.70;;;2.50;;
22963;SDS011;11648;49.306;6.934;2023-12-20T05:21:16;7.97;;;2.93;;
22963;SDS011;11648;49.306;6.934;2023-12-20T05:23:43;5.50;;;2.13;;
22963;SDS011;11648;49.306;6.934;2023-12-20T05:26:10;8.23;;;2.30;;
22963;SDS011;11648;49.306;6.934;2023-12-20T05:28:37;11.23;;;2.40;;
22963;SDS011;11648;49.306;6.934;2023-12-20T05:31:04;9.63;;;2.67;;
22963;SDS011;11648;49.306;6.934;2023-12-20T05:33:31;7.00;;;1.97;;
22963;SDS011;11648;49.306;6.934;2023-12-20T05:35:57;7.53;;;1.90;;
22963;SDS011;11648;49.306;6.934;2023-12-20T05:38:24;5.37;;;1.43;;
22963;SDS011;11648;49.306;6.934;2023-12-20T05:40:51;5.60;;;1.50;;
22963;SDS011;11648;49.306;6.934;2023-12-20T05:43:18;6.77;;;1.60;;
22963;SDS011;11648;49.306;6.934;2023-12-20T05:45:46;9.07;;;1.73;;
22963;SDS011;11648;49.306;6.934;2023-12-20T05:48:13;6.47;;;1.37;;
22963;SDS011;11648;49.306;6.934;2023-12-20T05:50:40;7.17;;;1.47;;
22963;SDS011;11648;49.306;6.934;2023-12-20T05:53:07;7.53;;;1.50;;
22963;SDS011;11648;49.306;6.934;2023-12-20T05:55:34;5.43;;;1.30;;
22963;SDS011;11648;49.306;6.934;2023-12-20T05:58:01;5.83;;;1.00;;
22963;SDS011;11648;49.306;6.934;2023-12-20T06:00:28;5.03;;;1.33;;
22963;SDS011;11648;49.306;6.934;2023-12-20T06:02:55;5.63;;;1.20;;
22963;SDS011;11648;49.306;6.934;2023-12-20T06:05:21;8.13;;;0.90;;
22963;SDS011;11648;49.306;6.934;2023-12-20T06:07:48;4.67;;;1.27;;
22963;SDS011;11648;49.306;6.934;2023-12-20T06:10:17;7.03;;;1.40;;
22963;SDS011;11648;49.306;6.934;2023-12-20T06:12:44;4.77;;;1.40;;
22963;SDS011;11648;49.306;6.934;2023-12-20T06:15:14;6.20;;;1.70;;
22963;SDS011;11648;49.306;6.934;2023-12-20T06:17:41;9.17;;;1.50;;
22963;SDS011;11648;49.306;6.934;2023-12-20T06:20:08;7.10;;;1.43;;
22963;SDS011;11648;49.306;6.934;2023-12-20T06:22:36;5.03;;;1.50;;
22963;SDS011;11648;49.306;6.934;2023-12-20T06:25:03;6.90;;;1.20;;
22963;SDS011;11648;49.306;6.934;2023-12-20T06:27:30;5.20;;;1.17;;
22963;SDS011;11648;49.306;6.934;2023-12-20T06:29:59;7.10;;;1.27;;
22963;SDS011;11648;49.306;6.934;2023-12-20T06:32:26;5.87;;;1.10;;
22963;SDS011;11648;49.306;6.934;2023-12-20T06:34:52;6.73;;;1.47;;
22963;SDS011;11648;49.306;6.934;2023-12-20T06:37:19;6.73;;;1.33;;
22963;SDS011;11648;49.306;6.934;2023-12-20T06:39:46;6.67;;;1.60;;
22963;SDS011;11648;49.306;6.934;2023-12-20T06:42:13;7.23;;;2.27;;
22963;SDS011;11648;49.306;6.934;2023-12-20T06:44:40;7.13;;;1.60;;
22963;SDS011;11648;49.306;6.934;2023-12-20T06:47:07;5.07;;;1.70;;
22963;SDS011;11648;49.306;6.934;2023-12-20T06:49:34;6.40;;;1.67;;
22963;SDS011;11648;49.306;6.934;2023-12-20T06:52:01;4.97;;;1.13;;
22963;SDS011;11648;49.306;6.934;2023-12-20T06:54:28;10.03;;;1.23;;
22963;SDS011;11648;49.306;6.934;2023-12-20T06:56:55;9.30;;;1.50;;
22963;SDS011;11648;49.306;6.934;2023-12-20T06:59:22;7.93;;;1.50;;
22963;SDS011;11648;49.306;6.934;2023-12-20T07:01:49;5.23;;;1.30;;
22963;SDS011;11648;49.306;6.934;2023-12-20T07:04:16;6.40;;;1.30;;
22963;SDS011;11648;49.306;6.934;2023-12-20T07:06:48;5.47;;;1.30;;
22963;SDS011;11648;49.306;6.934;2023-12-20T07:09:18;5.80;;;2.43;;
22963;SDS011;11648;49.306;6.934;2023-12-20T07:11:45;3.93;;;1.20;;
22963;SDS011;11648;49.306;6.934;2023-12-20T07:14:11;4.43;;;1.47;;
22963;SDS011;11648;49.306;6.934;2023-12-20T07:16:38;6.93;;;1.70;;
22963;SDS011;11648;49.306;6.934;2023-12-20T07:19:05;7.53;;;1.90;;
22963;SDS011;11648;49.306;6.934;2023-12-20T07:21:32;7.37;;;1.50;;
22963;SDS011;11648;49.306;6.934;2023-12-20T07:23:59;6.17;;;1.80;;
22963;SDS011;11648;49.306;6.934;2023-12-20T07:26:26;6.40;;;1.70;;
22963;SDS011;11648;49.306;6.934;2023-12-20T07:28:53;8.07;;;2.00;;
22963;SDS011;11648;49.306;6.934;2023-12-20T07:31:20;8.77;;;2.00;;
22963;SDS011;11648;49.306;6.934;2023-12-20T07:33:47;10.23;;;2.90;;
22963;SDS011;11648;49.306;6.934;2023-12-20T07:36:14;10.97;;;2.40;;
22963;SDS011;11648;49.306;6.934;2023-12-20T07:38:41;7.27;;;2.10;;
22963;SDS011;11648;49.306;6.934;2023-12-20T07:41:11;8.87;;;2.50;;
22963;SDS011;11648;49.306;6.934;2023-12-20T07:43:38;5.67;;;2.10;;
22963;SDS011;11648;49.306;6.934;2023-12-20T07:46:06;7.80;;;2.27;;
22963;SDS011;11648;49.306;6.934;2023-12-20T07:48:36;9.73;;;2.73;;
22963;SDS011;11648;49.306;6.934;2023-12-20T07:51:03;7.10;;;2.40;;
22963;SDS011;11648;49.306;6.934;2023-12-20T07:53:32;9.60;;;2.27;;
22963;SDS011;11648;49.306;6.934;2023-12-20T07:55:59;8.77;;;2.10;;
22963;SDS011;11648;49.306;6.934;2023-12-20T07:58:26;10.50;;;2.20;;
22963;SDS011;11648;49.306;6.934;2023-12-20T08:01:11;6.57;;;2.30;;
22963;SDS011;11648;49.306;6.934;2023-12-20T08:03:38;7.13;;;2.30;;
22963;SDS011;11648;49.306;6.934;2023-12-20T08:06:05;11.73;;;2.60;;
22963;SDS011;11648;49.306;6.934;2023-12-20T08:08:32;9.83;;;2.83;;
22963;SDS011;11648;49.306;6.934;2023-12-20T08:10:59;5.50;;;2.20;;
22963;SDS011;11648;49.306;6.934;2023-12-20T08:13:26;6.27;;;2.10;;
22963;SDS011;11648;49.306;6.934;2023-12-20T08:15:53;10.00;;;2.60;;
22963;SDS011;11648;49.306;6.934;2023-12-20T08:18:22;10.63;;;2.73;;
22963;SDS011;11648;49.306;6.934;2023-12-20T08:20:50;12.10;;;2.60;;
22963;SDS011;11648;49.306;6.934;2023-12-20T08:23:19;10.77;;;2.23;;
22963;SDS011;11648;49.306;6.934;2023-12-20T08:25:50;6.43;;;2.70;;
22963;SDS011;11648;49.306;6.934;2023-12-20T08:28:17;10.67;;;3.17;;
22963;SDS011;11648;49.306;6.934;2023-12-20T08:30:44;11.63;;;2.70;;
22963;SDS011;11648;49.306;6.934;2023-12-20T08:33:11;10.03;;;2.77;;
22963;SDS011;11648;49.306;6.934;2023-12-20T08:35:39;9.87;;;3.20;;
22963;SDS011;11648;49.306;6.934;2023-12-20T08:38:06;10.90;;;3.03;;
22963;SDS011;11648;49.306;6.934;2023-12-20T08:40:33;10.97;;;3.00;;
22963;SDS011;11648;49.306;6.934;2023-12-20T08:43:00;8.73;;;2.47;;
22963;SDS011;11648;49.306;6.934;2023-12-20T08:45:27;7.63;;;2.27;;
22963;SDS011;11648;49.306;6.934;2023-12-20T08:47:55;8.53;;;2.30;;
22963;SDS011;11648;49.306;6.934;2023-12-20T08:50:25;6.30;;;2.33;;
22963;SDS011;11648;49.306;6.934;2023-12-20T08:52:52;12.00;;;2.53;;
22963;SDS011;11648;49.306;6.934;2023-12-20T08:55:19;9.10;;;2.40;;
22963;SDS011;11648;49.306;6.934;2023-12-20T08:57:46;8.77;;;2.33;;
22963;SDS011;11648;49.306;6.934;2023-12-20T09:00:14;10.10;;;2.60;;
22963;SDS011;11648;49.306;6.934;2023-12-20T09:02:41;10.30;;;2.53;;
22963;SDS011;11648;49.306;6.934;2023-12-20T09:05:08;8.73;;;2.80;;
22963;SDS011;11648;49.306;6.934;2023-12-20T09:07:35;9.47;;;2.80;;
22963;SDS011;11648;49.306;6.934;2023-12-20T09:10:02;7.73;;;2.63;;
22963;SDS011;11648;49.306;6.934;2023-12-20T09:12:30;8.90;;;2.73;;
22963;SDS011;11648;49.306;6.934;2023-12-20T09:14:57;7.33;;;2.63;;
22963;SDS011;11648;49.306;6.934;2023-12-20T09:17:24;7.37;;;2.70;;
22963;SDS011;11648;49.306;6.934;2023-12-20T09:19:51;11.30;;;2.63;;
22963;SDS011;11648;49.306;6.934;2023-12-20T09:22:20;11.77;;;2.60;;
22963;SDS011;11648;49.306;6.934;2023-12-20T09:24:47;13.00;;;2.90;;
22963;SDS011;11648;49.306;6.934;2023-12-20T09:27:14;9.97;;;3.37;;
22963;SDS011;11648;49.306;6.934;2023-12-20T09:29:41;11.17;;;3.17;;
22963;SDS011;11648;49.306;6.934;2023-12-20T09:32:08;10.87;;;2.83;;
22963;SDS011;11648;49.306;6.934;2023-12-20T09:34:35;12.77;;;3.30;;
22963;SDS011;11648;49.306;6.934;2023-12-20T09:37:04;12.47;;;3.40;;
22963;SDS011;11648;49.306;6.934;2023-12-20T09:39:32;9.63;;;2.83;;
22963;SDS011;11648;49.306;6.934;2023-12-20T09:44:30;11.33;;;3.33;;
22963;SDS011;11648;49.306;6.934;2023-12-20T09:46:59;10.23;;;3.40;;
22963;SDS011;11648;49.306;6.934;2023-12-20T09:49:29;11.23;;;2.90;;
22963;SDS011;11648;49.306;6.934;2023-12-20T09:51:57;11.67;;;2.83;;
22963;SDS011;11648;49.306;6.934;2023-12-20T09:54:26;10.87;;;2.83;;
22963;SDS011;11648;49.306;6.934;2023-12-20T09:56:55;11.87;;;2.90;;
22963;SDS011;11648;49.306;6.934;2023-12-20T09:59:22;11.40;;;2.77;;
22963;SDS011;11648;49.306;6.934;2023-12-20T10:01:48;8.87;;;2.40;;
22963;SDS011;11648;49.306;6.934;2023-12-20T10:04:21;9.57;;;2.80;;
22963;SDS011;11648;49.306;6.934;2023-12-20T10:06:56;8.97;;;2.77;;
22963;SDS011;11648;49.306;6.934;2023-12-20T10:09:23;11.97;;;3.10;;
22963;SDS011;11648;49.306;6.934;2023-12-20T10:11:54;9.90;;;2.87;;
22963;SDS011;11648;49.306;6.934;2023-12-20T10:14:21;10.73;;;2.63;;
22963;SDS011;11648;49.306;6.934;2023-12-20T10:16:50;9.07;;;2.43;;
22963;SDS011;11648;49.306;6.934;2023-12-20T10:19:17;8.37;;;2.33;;
22963;SDS011;11648;49.306;6.934;2023-12-20T10:21:47;10.43;;;2.50;;
22963;SDS011;11648;49.306;6.934;2023-12-20T10:24:17;10.20;;;2.50;;
22963;SDS011;11648;49.306;6.934;2023-12-20T10:26:44;11.17;;;2.60;;
22963;SDS011;11648;49.306;6.934;2023-12-20T10:29:11;10.43;;;3.67;;
22963;SDS011;11648;49.306;6.934;2023-12-20T10:31:38;11.07;;;2.80;;
22963;SDS011;11648;49.306;6.934;2023-12-20T10:34:05;9.67;;;2.40;;
22963;SDS011;11648;49.306;6.934;2023-12-20T10:36:32;11.00;;;2.60;;
22963;SDS011;11648;49.306;6.934;2023-12-20T10:39:00;9.70;;;2.23;;
22963;SDS011;11648;49.306;6.934;2023-12-20T10:41:31;9.07;;;2.20;;
22963;SDS011;11648;49.306;6.934;2023-12-20T10:44:00;10.37;;;2.10;;
22963;SDS011;11648;49.306;6.934;2023-12-20T10:46:28;8.63;;;2.50;;
22963;SDS011;11648;49.306;6.934;2023-12-20T10:48:56;10.13;;;2.13;;
22963;SDS011;11648;49.306;6.934;2023-12-20T10:51:24;11.03;;;2.30;;
22963;SDS011;11648;49.306;6.934;2023-12-20T10:53:56;8.10;;;2.27;;
22963;SDS011;11648;49.306;6.934;2023-12-20T10:56:23;9.20;;;2.30;;
22963;SDS011;11648;49.306;6.934;2023-12-20T10:58:50;8.90;;;2.50;;
22963;SDS011;11648;49.306;6.934;2023-12-20T11:01:17;9.97;;;2.50;;
22963;SDS011;11648;49.306;6.934;2023-12-20T11:03:49;9.87;;;1.90;;
22963;SDS011;11648;49.306;6.934;2023-12-20T11:06:26;7.63;;;2.00;;
22963;SDS011;11648;49.306;6.934;2023-12-20T11:12:06;12.23;;;2.00;;
22963;SDS011;11648;49.306;6.934;2023-12-20T11:14:55;9.37;;;1.90;;
22963;SDS011;11648;49.306;6.934;2023-12-20T11:17:24;10.67;;;2.13;;
22963;SDS011;11648;49.306;6.934;2023-12-20T11:22:24;6.77;;;2.03;;
22963;SDS011;11648;49.306;6.934;2023-12-20T11:24:53;9.77;;;1.77;;
22963;SDS011;11648;49.306;6.934;2023-12-20T11:27:20;9.33;;;1.47;;
22963;SDS011;11648;49.306;6.934;2023-12-20T11:29:56;11.37;;;2.20;;
22963;SDS011;11648;49.306;6.934;2023-12-20T11:34:55;7.40;;;1.60;;
22963;SDS011;11648;49.306;6.934;2023-12-20T11:37:35;8.50;;;1.90;;
22963;SDS011;11648;49.306;6.934;2023-12-20T11:40:07;7.33;;;1.20;;
22963;SDS011;11648;49.306;6.934;2023-12-20T11:42:38;8.10;;;1.73;;
22963;SDS011;11648;49.306;6.934;2023-12-20T11:45:09;5.70;;;1.70;;
22963;SDS011;11648;49.306;6.934;2023-12-20T11:47:37;11.53;;;2.13;;
22963;SDS011;11648;49.306;6.934;2023-12-20T11:50:04;6.57;;;1.73;;
22963;SDS011;11648;49.306;6.934;2023-12-20T11:52:32;10.03;;;1.83;;
22963;SDS011;11648;49.306;6.934;2023-12-20T11:54:59;8.83;;;1.70;;
22963;SDS011;11648;49.306;6.934;2023-12-20T11:57:26;11.20;;;1.80;;
22963;SDS011;11648;49.306;6.934;2023-12-20T11:59:54;9.53;;;1.80;;
22963;SDS011;11648;49.306;6.934;2023-12-20T12:02:21;9.83;;;1.57;;
22963;SDS011;11648;49.306;6.934;2023-12-20T12:04:48;10.93;;;1.97;;
22963;SDS011;11648;49.306;6.934;2023-12-20T12:07:16;9.17;;;1.90;;
22963;SDS011;11648;49.306;6.934;2023-12-20T12:09:43;8.97;;;1.80;;
22963;SDS011;11648;49.306;6.934;2023-12-20T12:12:11;10.37;;;2.37;;
22963;SDS011;11648;49.306;6.934;2023-12-20T12:14:40;7.40;;;1.87;;
22963;SDS011;11648;49.306;6.934;2023-12-20T12:17:10;8.87;;;1.90;;
22963;SDS011;11648;49.306;6.934;2023-12-20T12:19:38;8.77;;;2.10;;
22963;SDS011;11648;49.306;6.934;2023-12-20T12:22:07;8.77;;;1.80;;
22963;SDS011;11648;49.306;6.934;2023-12-20T12:24:45;7.37;;;1.67;;
22963;SDS011;11648;49.306;6.934;2023-12-20T12:27:13;8.00;;;1.67;;
22963;SDS011;11648;49.306;6.934;2023-12-20T12:29:40;7.63;;;2.10;;
22963;SDS011;11648;49.306;6.934;2023-12-20T12:32:07;14.83;;;2.73;;
22963;SDS011;11648;49.306;6.934;2023-12-20T12:34:35;10.63;;;1.83;;
22963;SDS011;11648;49.306;6.934;2023-12-20T12:37:03;9.53;;;1.90;;
22963;SDS011;11648;49.306;6.934;2023-12-20T12:39:31;10.77;;;1.90;;
22963;SDS011;11648;49.306;6.934;2023-12-20T12:41:58;11.17;;;2.10;;
22963;SDS011;11648;49.306;6.934;2023-12-20T12:44:25;9.73;;;1.93;;
22963;SDS011;11648;49.306;6.934;2023-12-20T12:46:52;13.60;;;2.27;;
22963;SDS011;11648;49.306;6.934;2023-12-20T12:49:20;10.50;;;2.00;;
22963;SDS011;11648;49.306;6.934;2023-12-20T12:51:48;10.23;;;1.97;;
22963;SDS011;11648;49.306;6.934;2023-12-20T12:54:15;10.80;;;1.70;;
22963;SDS011;11648;49.306;6.934;2023-12-20T12:56:43;10.80;;;2.00;;
22963;SDS011;11648;49.306;6.934;2023-12-20T12:59:11;10.03;;;1.87;;
22963;SDS011;11648;49.306;6.934;2023-12-20T13:01:38;8.00;;;1.67;;
22963;SDS011;11648;49.306;6.934;2023-12-20T13:04:06;11.73;;;1.60;;
22963;SDS011;11648;49.306;6.934;2023-12-20T13:06:37;10.50;;;1.83;;
22963;SDS011;11648;49.306;6.934;2023-12-20T13:09:04;7.27;;;1.77;;
22963;SDS011;11648;49.306;6.934;2023-12-20T13:11:31;13.53;;;3.27;;
22963;SDS011;11648;49.306;6.934;2023-12-20T13:13:58;7.63;;;1.83;;
22963;SDS011;11648;49.306;6.934;2023-12-20T13:16:26;6.67;;;1.40;;
22963;SDS011;11648;49.306;6.934;2023-12-20T13:18:53;7.17;;;1.43;;
22963;SDS011;11648;49.306;6.934;2023-12-20T13:21:20;11.27;;;2.17;;
22963;SDS011;11648;49.306;6.934;2023-12-20T13:23:47;11.50;;;1.90;;
22963;SDS011;11648;49.306;6.934;2023-12-20T13:26:14;10.07;;;1.50;;
22963;SDS011;11648;49.306;6.934;2023-12-20T13:28:41;7.73;;;1.57;;
22963;SDS011;11648;49.306;6.934;2023-12-20T13:31:08;10.27;;;1.60;;
22963;SDS011;11648;49.306;6.934;2023-12-20T13:33:35;7.80;;;1.50;;
22963;SDS011;11648;49.306;6.934;2023-12-20T13:36:02;12.87;;;2.07;;
22963;SDS011;11648;49.306;6.934;2023-12-20T13:38:33;10.20;;;2.07;;
22963;SDS011;11648;49.306;6.934;2023-12-20T13:41:00;10.67;;;1.53;;
22963;SDS011;11648;49.306;6.934;2023-12-20T13:43:27;8.00;;;1.60;;
22963;SDS011;11648;49.306;6.934;2023-12-20T13:45:54;9.10;;;1.90;;
22963;SDS011;11648;49.306;6.934;2023-12-20T13:48:22;11.63;;;2.33;;
22963;SDS011;11648;49.306;6.934;2023-12-20T13:50:49;11.57;;;2.07;;
22963;SDS011;11648;49.306;6.934;2023-12-20T13:53:16;12.43;;;1.93;;
22963;SDS011;11648;49.306;6.934;2023-12-20T13:55:43;7.53;;;1.77;;
22963;SDS011;11648;49.306;6.934;2023-12-20T13:58:10;8.67;;;1.97;;
22963;SDS011;11648;49.306;6.934;2023-12-20T14:00:37;10.67;;;2.10;;
22963;SDS011;11648;49.306;6.934;2023-12-20T14:03:04;12.60;;;1.90;;
22963;SDS011;11648;49.306;6.934;2023-12-20T14:05:31;8.40;;;1.73;;
22963;SDS011;11648;49.306;6.934;2023-12-20T14:07:58;7.67;;;1.80;;
22963;SDS011;11648;49.306;6.934;2023-12-20T14:10:25;7.47;;;1.80;;
22963;SDS011;11648;49.306;6.934;2023-12-20T14:12:53;11.03;;;1.80;;
22963;SDS011;11648;49.306;6.934;2023-12-20T14:15:21;7.50;;;2.13;;
22963;SDS011;11648;49.306;6.934;2023-12-20T14:17:48;9.33;;;2.03;;
22963;SDS011;11648;49.306;6.934;2023-12-20T14:20:15;11.03;;;2.33;;
22963;SDS011;11648;49.306;6.934;2023-12-20T14:22:43;10.63;;;2.10;;
22963;SDS011;11648;49.306;6.934;2023-12-20T14:25:13;14.67;;;2.47;;
22963;SDS011;11648;49.306;6.934;2023-12-20T14:27:41;9.37;;;1.93;;
22963;SDS011;11648;49.306;6.934;2023-12-20T14:30:11;9.00;;;2.40;;
22963;SDS011;11648;49.306;6.934;2023-12-20T14:32:41;10.37;;;2.10;;
22963;SDS011;11648;49.306;6.934;2023-12-20T14:35:08;10.50;;;2.07;;
22963;SDS011;11648;49.306;6.934;2023-12-20T14:37:36;11.73;;;2.00;;
22963;SDS011;11648;49.306;6.934;2023-12-20T14:40:09;8.10;;;2.07;;
22963;SDS011;11648;49.306;6.934;2023-12-20T14:42:42;9.07;;;1.83;;
22963;SDS011;11648;49.306;6.934;2023-12-20T14:45:09;12.30;;;2.30;;
22963;SDS011;11648;49.306;6.934;2023-12-20T14:47:37;5.93;;;1.90;;
22963;SDS011;11648;49.306;6.934;2023-12-20T14:50:05;9.80;;;2.50;;
22963;SDS011;11648;49.306;6.934;2023-12-20T14:52:33;10.30;;;2.23;;
22963;SDS011;11648;49.306;6.934;2023-12-20T14:55:01;9.27;;;2.73;;
22963;SDS011;11648;49.306;6.934;2023-12-20T14:57:31;12.33;;;2.37;;
22963;SDS011;11648;49.306;6.934;2023-12-20T14:59:58;14.60;;;2.70;;